Detall de PIREP

Printer-friendly versionPDF version

[2008/10/12 08:43:00]
Flight IATA:CT2101
Pilot Number:011
Company ICAO:CAT
Aircraft Type:F28/A
PAX:85
Departing Airport: LEAS
Destination Airport: LEVC
Alternate Airport:LEPA
Online: VATSIM
Route:RATPO/N380F220 R107 VEDER/N430F340 UM30 ZMR UL155 KALMA UH100 CJN UN733 CLS
Flight Level:FL300
No Slew and time accel
No pause
Crash detect
Detect pilot in Cockpit between each 30 and 45 minutes
08:43 Zero fuel Weight: 60786 Lbs, Fuel Weight: 10013 Lbs
08:43 VATSIM:LEAS 120830Z 27006KT 9999 FEW012 SCT084 20/14 Q1020 NOSIG
08:43 VATSIM:LEVC 120830Z 07008KT 030V100 3000 BR SCT006 BKN012 BKN020 22/22 Q1024 NOSIG
08:44 Parking Brakes off
08:53 Take-off
08:53 Take off Weight: 70381 Lbs
08:53 Wind: 275 @ 006 Knots Heading: 287
08:53 POS N43 33 52 W006 02 19
08:53 Gear Up: 157 Knots
08:53 Flaps:2 at 157 Knots
08:53 Flaps:1 at 199 Knots
08:54 Flaps:0 at 219 Knots
09:08
Wind:030@008 Knots Heading: 171 Ground Speed: 419 Knots Altitude 26125 ft
09:13 TOC
09:13 Fuel Weight: 7112 Lb
09:23 Wind:055@008 Knots Heading: 136 Ground Speed: 448 Knots Altitude 29983 ft
09:38 Wind:043@023 Knots Heading: 087 Ground Speed: 435 Knots Altitude 29993 ft
09:39 TOD
09:39 Fuel Weight: 5121 Lb
09:53 Wind:079@017 Knots Heading: 116 Ground Speed: 257 Knots Altitude 5616 ft
09:57 Flaps:1 at 219 Knots
09:58 Flaps:2 at 203 Knots
09:59 Flaps:3 at 188 Knots
09:59 Flaps:4 at 176 Knots
09:59 Gear Down: 175 Knots
10:00 Flaps:5 at 152 Knots
10:02 TouchDown:Rate -277 ft/min Speed: 112 Knots
10:02 VATSIM:LEVC 120930Z 08009KT 060V120 3000 BR SCT006 BKN012 BKN020 22/22 Q1025 NOSIG
10:02 Land
10:02 Wind:082@009 Knots
10:02 Heading: 115
10:02 Flight Duration: 01:09
10:02 Landing Weight: 64944 Lbs
10:02 POS N39 29 08 W000 28 18
10:07 Park
ing brakes on
10:07 Block to Block Duration: 01:23
10:07 Final Fuel: 3996 Lbls
10:07 Spent Fuel: 6016 Lbls
10:07 Flight Length: 95 NM
10:07 TOD Land Length: 21 NM

Exportar CSV

Powered by Drupal - Modified by Danger4k